createdAt,value
2023-04-26T00:00:03.218Z,1.48
2023-04-26T00:05:02.562Z,1.64
2023-04-26T00:10:03.079Z,1.57
2023-04-26T00:15:03.055Z,1.43
2023-04-26T00:20:02.779Z,1.68
2023-04-26T00:25:02.559Z,1.75
2023-04-26T00:30:02.550Z,1.63
2023-04-26T00:35:03.170Z,1.4
2023-04-26T00:40:02.912Z,1.31
2023-04-26T00:45:02.715Z,1.08
2023-04-26T00:50:02.366Z,0.91
2023-04-26T00:55:03.926Z,1.02
2023-04-26T01:00:02.840Z,1.15
2023-04-26T01:05:02.552Z,0.91
2023-04-26T01:10:02.452Z,0.72
2023-04-26T01:15:02.900Z,0.82
2023-04-26T01:20:02.496Z,0.77
2023-04-26T01:25:02.753Z,0.66
2023-04-26T01:30:02.460Z,0.75
2023-04-26T01:35:02.510Z,1.18
2023-04-26T01:40:03.521Z,0.86
2023-04-26T01:45:02.851Z,0.81
2023-04-26T01:50:02.479Z,0.9
2023-04-26T01:55:03.521Z,0.79
2023-04-26T02:00:03.072Z,0.72
2023-04-26T02:05:03.134Z,0.67
2023-04-26T02:10:03.071Z,0.74
2023-04-26T02:15:02.747Z,0.48
2023-04-26T02:20:02.455Z,0.55
2023-04-26T02:25:02.465Z,0.48
2023-04-26T02:30:02.532Z,0.32
2023-04-26T02:35:02.223Z,0.43
2023-04-26T02:40:02.965Z,0.47
2023-04-26T02:45:02.890Z,0.58
2023-04-26T02:50:02.608Z,0.59
2023-04-26T02:55:03.272Z,0.35
2023-04-26T03:00:02.374Z,0.54
2023-04-26T03:05:03.094Z,0.63
2023-04-26T03:10:03.025Z,0.84
2023-04-26T03:15:02.763Z,0.81
2023-04-26T03:20:02.968Z,0.8
2023-04-26T03:25:02.296Z,1.05
2023-04-26T03:30:03.052Z,0.87
2023-04-26T03:35:02.920Z,0.93
2023-04-26T03:40:02.688Z,1.06
2023-04-26T03:45:02.464Z,0.81
2023-04-26T03:50:02.837Z,0.9
2023-04-26T03:55:04.247Z,0.93
2023-04-26T04:00:02.972Z,0.81
2023-04-26T04:05:02.505Z,0.92
2023-04-26T04:10:02.258Z,0.8
2023-04-26T04:15:03.174Z,0.82
2023-04-26T04:20:02.909Z,0.94
2023-04-26T04:25:02.672Z,0.85
2023-04-26T04:30:02.348Z,0.98
2023-04-26T04:35:02.264Z,1.03
2023-04-26T04:40:02.956Z,1.17
2023-04-26T04:45:02.852Z,1.29
2023-04-26T04:50:02.574Z,1.47
2023-04-26T04:55:02.767Z,1.56
2023-04-26T05:00:03.126Z,1.73
2023-04-26T05:05:03.084Z,1.94
2023-04-26T05:10:02.753Z,2.08
2023-04-26T05:15:02.545Z,2.17
2023-04-26T05:20:02.889Z,2.4
2023-04-26T05:25:02.549Z,2.58
2023-04-26T05:30:02.305Z,2.87
2023-04-26T05:35:03.192Z,3.1
2023-04-26T05:40:02.838Z,3.21
2023-04-26T05:45:02.620Z,3.57
2023-04-26T05:50:02.332Z,3.74
2023-04-26T05:55:04.293Z,3.49
2023-04-26T06:00:02.988Z,3.88
2023-04-26T06:05:02.954Z,4.04
2023-04-26T06:10:02.504Z,4.02
2023-04-26T06:15:02.636Z,4.26
2023-04-26T06:20:02.684Z,4.32
2023-04-26T06:25:02.321Z,4.68
2023-04-26T06:30:03.126Z,4.47
2023-04-26T06:35:02.922Z,5.34
2023-04-26T06:40:02.603Z,5.34
2023-04-26T06:45:02.454Z,5.38
2023-04-26T06:50:03.194Z,5.09
2023-04-26T06:55:04.030Z,5.46
2023-04-26T07:00:02.890Z,6.08
2023-04-26T07:05:02.774Z,5.97
2023-04-26T07:10:02.334Z,5.9
2023-04-26T07:15:02.236Z,6.34
2023-04-26T07:20:03.046Z,5.87
2023-04-26T07:25:02.730Z,6
2023-04-26T07:30:02.746Z,6.49
2023-04-26T07:35:02.435Z,6.71
2023-04-26T07:40:02.212Z,6.03
2023-04-26T07:45:02.980Z,6.74
2023-04-26T07:50:02.743Z,7.46
2023-04-26T07:55:03.159Z,6.61
2023-04-26T08:00:02.375Z,6.88
2023-04-26T08:05:03.244Z,7.94
2023-04-26T08:10:02.834Z,8.04
2023-04-26T08:15:02.655Z,7.92
2023-04-26T08:20:02.464Z,8.42
2023-04-26T08:25:02.302Z,6.83
2023-04-26T08:30:03.029Z,8.43
2023-04-26T08:35:02.837Z,6.87
2023-04-26T08:40:02.645Z,7.91
2023-04-26T08:45:02.682Z,6.2
2023-04-26T08:50:02.219Z,7.6
2023-04-26T08:55:03.830Z,6.81
2023-04-26T09:00:02.734Z,8.96
2023-04-26T09:05:02.757Z,8.41
2023-04-26T09:10:02.154Z,7.98
2023-04-26T09:15:03.029Z,8.36
2023-04-26T09:20:04.106Z,8.04
2023-04-26T09:25:02.655Z,6.17
2023-04-26T09:30:02.367Z,5.78
2023-04-26T09:35:03.160Z,7.53
2023-04-26T09:40:02.830Z,8.27
2023-04-26T09:45:02.781Z,6.92
2023-04-26T09:50:02.376Z,7.06
2023-04-26T09:55:03.506Z,6.42
2023-04-26T10:00:02.232Z,6.37
2023-04-26T10:05:02.945Z,6.5
2023-04-26T10:10:02.899Z,7.14
2023-04-26T10:15:02.933Z,7
2023-04-26T10:20:02.704Z,7.37
2023-04-26T10:25:02.421Z,6.99
2023-04-26T10:30:03.135Z,6.79
2023-04-26T10:35:02.805Z,6.1
2023-04-26T10:40:02.645Z,6.07
2023-04-26T10:45:02.378Z,6.93
2023-04-26T10:50:04.981Z,8.16
2023-04-26T10:55:04.162Z,8.48
2023-04-26T11:00:02.906Z,8.55
2023-04-26T11:05:02.757Z,7.48
2023-04-26T11:10:02.422Z,7.78
2023-04-26T11:15:03.188Z,7.79
2023-04-26T11:20:03.106Z,7.37
2023-04-26T11:25:03.139Z,7.59
2023-04-26T11:30:02.926Z,7.93
2023-04-26T11:35:02.630Z,8.38
2023-04-26T11:40:02.410Z,9.39
2023-04-26T11:45:02.352Z,9.55
2023-04-26T11:50:02.933Z,9.78
2023-04-26T11:55:03.604Z,9.35
2023-04-26T12:00:02.584Z,8.53
2023-04-26T12:05:02.643Z,9.31
2023-04-26T12:10:02.260Z,10.48
2023-04-26T12:15:02.222Z,9.28
2023-04-26T12:20:03.016Z,8.4
2023-04-26T12:25:02.639Z,8.4
2023-04-26T12:30:02.735Z,9.76
2023-04-26T12:35:02.499Z,8.35
2023-04-26T12:40:02.196Z,7.68
2023-04-26T12:45:03.035Z,7.03
2023-04-26T12:50:02.952Z,7.56
2023-04-26T12:55:03.559Z,8.23
2023-04-26T13:00:02.608Z,9.29
2023-04-26T13:05:02.395Z,9.95
2023-04-26T13:10:02.231Z,8.95
2023-04-26T13:15:03.168Z,9.6
2023-04-26T13:20:02.712Z,8.76
2023-04-26T13:25:02.597Z,8.67
2023-04-26T13:30:02.650Z,9.8
2023-04-26T13:35:03.297Z,10.44
2023-04-26T13:40:03.053Z,9.67
2023-04-26T13:45:02.918Z,9.49
2023-04-26T13:50:02.660Z,8.85
2023-04-26T13:55:03.100Z,8.85
2023-04-26T14:00:03.119Z,9.76
2023-04-26T14:05:03.092Z,8.99
2023-04-26T14:10:02.736Z,9.27
2023-04-26T14:15:02.910Z,10.4
2023-04-26T14:20:02.393Z,9.4
2023-04-26T14:25:02.188Z,8.4
2023-04-26T14:30:03.137Z,8.29
2023-04-26T14:35:02.867Z,8.11
2023-04-26T14:40:02.621Z,7.99
2023-04-26T14:45:02.537Z,8.04
2023-04-26T14:50:02.260Z,8.27
2023-04-26T14:55:03.652Z,9.27
2023-04-26T15:00:02.676Z,9.95
2023-04-26T15:05:02.466Z,9.61
2023-04-26T15:10:02.348Z,8.33
2023-04-26T15:15:03.153Z,8.06
2023-04-26T15:20:03.110Z,8.15
2023-04-26T15:25:02.967Z,8.12
2023-04-26T15:30:02.687Z,8.48
2023-04-26T15:35:02.970Z,8.5
2023-04-26T15:40:02.490Z,9.72
2023-04-26T15:45:02.359Z,8.97
2023-04-26T15:50:03.148Z,8.31
2023-04-26T15:55:03.647Z,8.26
2023-04-26T16:00:02.653Z,8.82
2023-04-26T16:05:02.707Z,9.67
2023-04-26T16:10:02.630Z,8.75
2023-04-26T16:15:03.007Z,8.41
2023-04-26T16:20:02.798Z,8.04
2023-04-26T16:25:03.164Z,7.74
2023-04-26T16:30:02.340Z,7.68
2023-04-26T16:35:02.997Z,7.7
2023-04-26T16:40:02.657Z,7.96
2023-04-26T16:45:02.477Z,7.77
2023-04-26T16:50:02.379Z,7.69
2023-04-26T16:55:03.548Z,7.63
2023-04-26T17:00:02.938Z,7.52
2023-04-26T17:05:02.907Z,7.37
2023-04-26T17:10:02.518Z,7.32
2023-04-26T17:15:03.746Z,7.24
2023-04-26T17:20:03.313Z,7.3
2023-04-26T17:25:02.892Z,7.19
2023-04-26T17:30:02.690Z,7.24
2023-04-26T17:35:03.174Z,7.2
2023-04-26T17:40:02.424Z,7.33
2023-04-26T17:45:02.428Z,7.22
2023-04-26T17:50:02.257Z,7.06
2023-04-26T17:55:03.570Z,7.13
2023-04-26T18:00:03.186Z,6.96
2023-04-26T18:05:02.922Z,6.55
2023-04-26T18:10:02.603Z,6.08
2023-04-26T18:15:02.603Z,5.49
2023-04-26T18:20:02.372Z,5.52
2023-04-26T18:25:02.192Z,5.4
2023-04-26T18:30:02.362Z,5.28
2023-04-26T18:35:03.087Z,5.11
2023-04-26T18:40:02.958Z,4.68
2023-04-26T18:45:02.759Z,4.54
2023-04-26T18:50:02.687Z,4.48
2023-04-26T18:55:02.904Z,4.13
2023-04-26T19:00:03.053Z,3.89
2023-04-26T19:05:03.029Z,4.19
2023-04-26T19:10:02.631Z,4.12
2023-04-26T19:15:02.281Z,3.93
2023-04-26T19:20:03.096Z,3.65
2023-04-26T19:25:02.911Z,3.46
2023-04-26T19:30:02.746Z,3.85
2023-04-26T19:35:02.488Z,4.02
2023-04-26T19:40:02.262Z,4.07
2023-04-26T19:45:03.012Z,4.23
2023-04-26T19:50:02.728Z,4.21
2023-04-26T19:55:03.272Z,4.38
2023-04-26T20:00:02.677Z,4.39
2023-04-26T20:05:02.423Z,4.45
2023-04-26T20:10:02.206Z,4.56
2023-04-26T20:15:03.227Z,4.46
2023-04-26T20:20:02.989Z,4.29
2023-04-26T20:25:02.627Z,4.36
2023-04-26T20:30:02.869Z,4.36
2023-04-26T20:35:02.886Z,4.35
2023-04-26T20:40:02.485Z,4.3
2023-04-26T20:45:02.785Z,4.26
2023-04-26T20:50:02.567Z,4.23
2023-04-26T20:55:03.732Z,4.11
2023-04-26T21:00:02.276Z,3.89
2023-04-26T21:05:02.943Z,3.77
2023-04-26T21:10:02.662Z,3.82
2023-04-26T21:15:02.617Z,3.84
2023-04-26T21:20:02.545Z,3.91
2023-04-26T21:25:02.323Z,3.84
2023-04-26T21:30:03.213Z,3.84
2023-04-26T21:35:03.075Z,3.99
2023-04-26T21:40:02.936Z,4.03
2023-04-26T21:45:03.204Z,3.9
2023-04-26T21:50:02.974Z,3.76
2023-04-26T21:55:03.829Z,3.65
2023-04-26T22:00:02.582Z,3.43
2023-04-26T22:05:02.361Z,3.52
2023-04-26T22:10:03.159Z,3.64
2023-04-26T22:15:03.048Z,3.74
2023-04-26T22:20:02.848Z,3.66
2023-04-26T22:25:02.730Z,3.26
2023-04-26T22:30:12.634Z,3
2023-04-26T22:35:02.954Z,2.86
2023-04-26T22:40:02.857Z,2.83
2023-04-26T22:45:03.040Z,3.08
2023-04-26T22:50:02.866Z,3.38
2023-04-26T22:55:03.447Z,3.56
2023-04-26T23:00:03.343Z,3.62
2023-04-26T23:05:02.895Z,3.73
2023-04-26T23:10:02.728Z,3.79
2023-04-26T23:15:02.514Z,3.77
2023-04-26T23:20:02.229Z,3.7
2023-04-26T23:25:03.073Z,3.56
2023-04-26T23:30:02.774Z,3.47
2023-04-26T23:35:02.724Z,3.57
2023-04-26T23:40:02.526Z,3.66
2023-04-26T23:45:03.209Z,3.64
2023-04-26T23:50:02.884Z,3.79
2023-04-26T23:55:03.647Z,3.75
